Time;durP1;ratioP1;P1;durP2;ratioP2;P2;SDS_P1;SDS_P2;PMS_P1;PMS_P2;Temp;Humidity;BMP_temperature;BMP_pressure;BME280_temperature;BME280_humidity;BME280_pressure;Samples;Min_cycle;Max_cycle;Signal;HPM_P1;HPM_P2
2022/09/13 00:01:37;;;;;;;;;9.75;9.75;;;;;23.89;50.79;100596.44;5019539;28;45940;-80
2022/09/13 00:04:03;;;;;;;;;11.75;11.25;;;;;23.87;50.89;100599.25;5019761;28;45513;-80
2022/09/13 00:06:29;;;;;;;;;10.00;9.00;;;;;23.86;51.05;100591.28;5020392;28;45537;-81
2022/09/13 00:08:55;;;;;;;;;8.25;8.25;;;;;23.87;51.18;100595.69;5019601;28;46511;-80
2022/09/13 00:11:26;;;;;;;;;11.25;10.25;;;;;23.87;50.72;100601.06;5019750;28;45283;-81
2022/09/13 00:13:52;;;;;;;;;8.50;8.50;;;;;23.84;51.25;100602.09;5021188;28;45434;-81
2022/09/13 00:16:20;;;;;;;;;11.50;11.50;;;;;23.82;50.55;100605.84;5020387;28;45411;-81
2022/09/13 00:18:45;;;;;;;;;10.00;8.75;;;;;23.84;50.68;100615.56;5018863;28;46120;-80
2022/09/13 00:21:13;;;;;;;;;8.00;8.00;;;;;23.82;50.23;100612.13;5020498;28;45252;-81
2022/09/13 00:23:42;;;;;;;;;5.33;5.33;;;;;23.84;50.30;100609.31;5019269;28;45411;-80
2022/09/13 00:26:11;;;;;;;;;6.25;6.00;;;;;23.84;49.96;100601.25;5020454;28;45479;-81
2022/09/13 00:28:37;;;;;;;;;9.00;6.00;;;;;23.82;50.05;100597.78;5019167;28;46228;-80
2022/09/13 00:31:04;;;;;;;;;9.00;8.67;;;;;23.78;49.63;100591.75;5020502;28;45237;-81
2022/09/13 00:33:30;;;;;;;;;7.50;7.50;;;;;23.80;50.31;100584.44;5018796;28;45417;-81
2022/09/13 00:35:56;;;;;;;;;8.67;7.33;;;;;23.77;50.29;100584.66;5002807;28;44872;-80
2022/09/13 00:38:22;;;;;;;;;3.33;3.00;;;;;23.73;50.03;100573.19;5003371;28;46406;-80
2022/09/13 00:40:47;;;;;;;;;6.00;6.00;;;;;23.73;50.21;100564.28;5000337;28;46014;-80
2022/09/13 00:43:18;;;;;;;;;9.00;7.67;;;;;23.69;50.29;100558.19;5001910;28;45459;-80
2022/09/13 00:45:45;;;;;;;;;9.00;8.00;;;;;23.66;50.19;100561.06;5018468;28;45553;-81
2022/09/13 00:48:21;;;;;;;;;6.25;5.25;;;;;23.62;50.56;100562.22;5019675;28;46141;-80
2022/09/13 00:50:54;;;;;;;;;7.00;7.00;;;;;23.60;50.25;100565.94;5019955;28;45409;-80
2022/09/13 00:53:29;;;;;;;;;8.00;7.00;;;;;23.61;50.93;100576.63;5018688;28;45506;-80
2022/09/13 00:56:08;;;;;;;;;9.00;8.33;;;;;23.56;50.60;100570.66;5018439;28;45418;-80
2022/09/13 00:58:46;;;;;;;;;6.67;6.00;;;;;23.55;50.94;100575.16;5017902;28;47312;-80
2022/09/13 01:01:14;;;;;;;;;7.25;7.25;;;;;23.56;51.15;100578.72;5019626;28;45304;-80
2022/09/13 01:03:44;;;;;;;;;8.33;6.00;;;;;23.58;50.85;100578.63;5018631;28;45450;-80
2022/09/13 01:06:19;;;;;;;;;6.33;6.33;;;;;23.56;50.79;100566.13;5019840;28;45378;-80
2022/09/13 01:08:49;;;;;;;;;6.75;6.75;;;;;23.59;51.07;100567.78;5019636;28;46494;-80
2022/09/13 01:11:24;;;;;;;;;6.33;6.33;;;;;23.55;50.90;100552.81;5018248;28;45412;-80
2022/09/13 01:13:50;;;;;;;;;8.33;7.67;;;;;23.54;51.25;100551.91;5019453;28;45448;-80
2022/09/13 01:16:17;;;;;;;;;6.33;6.00;;;;;23.55;50.96;100545.59;5019598;28;45503;-80
2022/09/13 01:18:42;;;;;;;;;6.67;6.67;;;;;23.52;50.69;100534.16;5006734;28;45442;-80
2022/09/13 01:21:44;;;;;;;;;6.67;6.67;;;;;23.51;50.76;100540.50;5004469;28;45399;-80
2022/09/13 01:24:37;;;;;;;;;7.33;7.00;;;;;23.50;50.87;100544.16;5015361;28;45424;-80
2022/09/13 01:27:26;;;;;;;;;7.33;7.33;;;;;23.47;51.36;100538.94;4999577;28;45245;-80
2022/09/13 01:30:11;;;;;;;;;6.67;6.67;;;;;23.46;51.26;100539.91;5000047;28;46590;-80
2022/09/13 01:33:00;;;;;;;;;5.00;5.00;;;;;23.45;51.19;100535.50;5007172;28;45473;-80
2022/09/13 01:35:29;;;;;;;;;6.67;5.67;;;;;23.44;51.27;100526.59;5019729;28;45334;-80
2022/09/13 01:38:02;;;;;;;;;8.50;6.25;;;;;23.43;50.67;100540.09;5019357;28;45462;-80
2022/09/13 01:40:40;;;;;;;;;7.33;6.67;;;;;23.44;51.27;100547.19;5019201;28;45575;-80
2022/09/13 01:43:22;;;;;;;;;8.33;7.33;;;;;23.44;50.92;100539.13;5018435;28;45485;-80
2022/09/13 01:46:02;;;;;;;;;7.67;7.33;;;;;23.40;50.57;100540.28;5018463;28;45440;-81
2022/09/13 01:48:59;;;;;;;;;7.00;6.67;;;;;23.37;50.90;100525.22;5019208;28;45363;-80
2022/09/13 01:51:28;;;;;;;;;5.00;4.33;;;;;23.38;51.34;100523.41;5017620;28;48260;-80
2022/09/13 01:54:14;;;;;;;;;6.67;6.33;;;;;23.39;51.34;100525.13;5017757;28;45864;-80
2022/09/13 01:56:48;;;;;;;;;6.00;6.00;;;;;23.39;51.49;100525.13;5023666;28;45416;-79
2022/09/13 01:59:21;;;;;;;;;6.00;6.00;;;;;23.37;51.34;100522.53;5021012;28;45624;-80
2022/09/13 02:01:57;;;;;;;;;7.33;7.33;;;;;23.38;51.12;100513.50;5022307;28;46255;-80
2022/09/13 02:04:28;;;;;;;;;6.67;6.67;;;;;23.35;51.27;100513.69;5021777;28;45242;-80
2022/09/13 02:07:18;;;;;;;;;5.67;5.00;;;;;23.33;50.98;100508.44;5031460;28;45204;-80
2022/09/13 02:09:49;;;;;;;;;7.33;6.33;;;;;23.31;51.30;100504.13;5021133;28;45427;-80
2022/09/13 02:12:23;;;;;;;;;6.33;6.33;;;;;23.28;51.19;100504.28;5009681;28;45236;-80
2022/09/13 02:15:06;;;;;;;;;5.33;5.00;;;;;23.22;51.52;100502.81;5010325;28;45274;-80
2022/09/13 02:17:44;;;;;;;;;8.00;7.00;;;;;23.19;51.48;100510.22;5011170;28;45380;-80
2022/09/13 02:20:20;;;;;;;;;8.67;7.00;;;;;23.16;51.48;100503.19;5021390;28;45604;-81
2022/09/13 02:22:53;;;;;;;;;7.67;6.67;;;;;23.14;51.83;100502.41;5011915;28;46279;-81
2022/09/13 02:25:21;;;;;;;;;5.00;5.00;;;;;23.10;51.76;100496.38;5007152;28;45518;-82
2022/09/13 02:27:50;;;;;;;;;7.33;7.33;;;;;23.07;51.86;100499.25;5000872;28;45376;-81
2022/09/13 02:30:18;;;;;;;;;6.67;6.00;;;;;23.04;51.75;100496.75;5000792;28;45463;-81
2022/09/13 02:33:03;;;;;;;;;6.67;6.33;;;;;23.01;51.54;100499.59;5000682;28;48068;-81
2022/09/13 02:35:40;;;;;;;;;6.67;6.67;;;;;22.95;52.11;100486.50;5002084;28;45388;-81
2022/09/13 02:38:22;;;;;;;;;6.33;6.00;;;;;22.96;51.57;100493.66;5002411;28;45277;-82
2022/09/13 02:40:57;;;;;;;;;6.33;5.67;;;;;22.90;52.08;100478.72;5009379;28;45474;-81
2022/09/13 02:43:40;;;;;;;;;5.00;5.00;;;;;22.90;52.27;100480.56;5021556;28;45402;-81
2022/09/13 02:46:46;;;;;;;;;6.00;6.00;;;;;22.90;52.27;100480.56;5020485;28;45366;-81
2022/09/13 02:49:19;;;;;;;;;4.00;4.00;;;;;22.90;52.44;100484.09;5022116;28;45353;-80
2022/09/13 02:52:08;;;;;;;;;5.33;5.00;;;;;22.90;52.07;100485.91;5021979;28;45239;-81
2022/09/13 02:54:46;;;;;;;;;5.00;5.00;;;;;22.89;52.47;100481.53;5014039;28;47046;-81
2022/09/13 02:57:37;;;;;;;;;3.00;2.00;;;;;22.89;52.13;100477.00;5025618;28;45146;-81
2022/09/13 03:00:04;;;;;;;;;9.00;4.00;;;;;22.87;52.30;100464.63;5023619;28;45421;-81
2022/09/13 03:02:33;;;;;;;;;6.00;4.67;;;;;22.86;52.12;100468.28;5020269;28;45403;-81
2022/09/13 03:05:01;;;;;;;;;5.00;5.00;;;;;22.85;51.96;100470.09;5021552;28;45512;-82
2022/09/13 03:07:27;;;;;;;;;4.67;4.00;;;;;22.86;52.09;100474.50;5021375;28;45327;-81
2022/09/13 03:09:57;;;;;;;;;3.67;3.67;;;;;22.85;51.93;100477.28;5021739;28;45427;-80
2022/09/13 03:12:36;;;;;;;;;5.00;4.33;;;;;22.86;52.06;100476.34;5021340;28;45271;-81
2022/09/13 03:15:32;;;;;;;;;7.75;6.50;;;;;22.82;51.93;100464.91;5019735;28;48129;-80
2022/09/13 03:18:26;;;;;;;;;5.67;5.67;;;;;22.83;51.85;100466.66;5019995;28;45448;-81
2022/09/13 03:21:08;;;;;;;;;8.00;5.33;;;;;22.80;52.20;100466.84;5020308;28;45416;-81
2022/09/13 03:23:44;;;;;;;;;5.33;4.00;;;;;22.83;51.92;100477.38;5020497;28;46237;-81
2022/09/13 03:26:37;;;;;;;;;6.00;5.33;;;;;22.84;51.72;100473.72;5020595;28;48242;-81
2022/09/13 03:29:18;;;;;;;;;4.67;4.67;;;;;22.84;51.94;100481.78;5021452;28;45184;-82
2022/09/13 03:31:43;;;;;;;;;5.00;5.00;;;;;22.86;51.83;100476.34;5019844;28;45481;-81
2022/09/13 03:34:20;;;;;;;;;3.67;3.67;;;;;22.85;51.82;100488.00;5011730;28;45347;-81
2022/09/13 03:36:57;;;;;;;;;4.67;4.67;;;;;22.84;51.80;100487.16;5001102;28;46446;-81
2022/09/13 03:39:44;;;;;;;;;4.00;4.00;;;;;22.90;51.82;100488.59;5001216;28;45345;-81
2022/09/13 03:42:19;;;;;;;;;6.00;5.00;;;;;22.89;51.88;100486.88;5008616;28;45505;-80
2022/09/13 03:44:49;;;;;;;;;4.00;4.00;;;;;22.88;51.57;100483.34;5019628;28;45454;-81
2022/09/13 03:47:16;;;;;;;;;3.33;3.33;;;;;22.92;52.16;100488.53;5020711;28;46205;-81
2022/09/13 03:49:41;;;;;;;;;5.00;5.00;;;;;22.90;51.92;100492.16;5036022;28;45277;-81
2022/09/13 03:52:08;;;;;;;;;4.33;4.33;;;;;22.92;52.11;100491.22;5019732;28;45221;-81
2022/09/13 03:54:37;;;;;;;;;0.00;0.00;;;;;22.93;51.47;100490.25;5019544;28;45284;-81
2022/09/13 03:57:16;;;;;;;;;5.00;4.00;;;;;22.97;51.43;100497.22;5018440;28;48174;-81
2022/09/13 03:59:46;;;;;;;;;5.00;4.00;;;;;22.96;51.75;100479.31;5019096;28;45264;-81
2022/09/13 04:02:13;;;;;;;;;4.67;3.33;;;;;22.99;51.65;100480.06;5020907;28;45442;-81
2022/09/13 04:04:40;;;;;;;;;4.00;4.00;;;;;23.00;52.01;100484.47;5020391;28;45646;-81
2022/09/13 04:07:06;;;;;;;;;5.67;4.33;;;;;22.97;51.57;100484.66;5020839;28;45550;-81
2022/09/13 04:09:32;;;;;;;;;4.33;4.33;;;;;23.00;51.84;100486.28;5020633;28;45280;-81
2022/09/13 04:11:57;;;;;;;;;8.67;5.33;;;;;22.96;51.56;100476.63;5020586;28;45229;-81
2022/09/13 04:14:25;;;;;;;;;3.33;3.33;;;;;22.97;51.48;100478.41;5019329;28;45734;-81
2022/09/13 04:16:52;;;;;;;;;3.33;3.33;;;;;23.00;51.28;100481.78;5020511;28;45370;-81
2022/09/13 04:19:17;;;;;;;;;5.00;4.00;;;;;22.98;51.80;100474.75;5018736;28;45363;-81
2022/09/13 04:21:43;;;;;;;;;4.00;4.00;;;;;22.95;51.64;100480.28;5018589;28;45461;-81
2022/09/13 04:24:08;;;;;;;;;4.67;4.67;;;;;22.94;51.82;100486.63;5020337;28;45355;-81
2022/09/13 04:26:34;;;;;;;;;5.67;5.00;;;;;22.92;51.88;100491.22;5018993;28;46986;-80
2022/09/13 04:28:59;;;;;;;;;2.67;2.67;;;;;22.95;51.83;100504.44;5019002;28;45268;-81
2022/09/13 04:31:25;;;;;;;;;5.00;4.00;;;;;22.97;51.55;100507.94;5020462;28;45229;-81
2022/09/13 04:33:51;;;;;;;;;4.00;4.00;;;;;22.96;51.12;100500.78;5020438;28;45316;-81
2022/09/13 04:36:16;;;;;;;;;3.00;3.00;;;;;22.93;51.29;100501.84;5020152;28;45325;-81
2022/09/13 04:38:42;;;;;;;;;5.67;4.67;;;;;22.96;51.21;100492.75;5018628;28;45447;-81
2022/09/13 04:41:08;;;;;;;;;4.33;3.33;;;;;22.96;51.65;100490.97;5020323;28;45593;-81
2022/09/13 04:43:33;;;;;;;;;4.00;4.00;;;;;22.98;51.60;100491.72;5018392;28;45544;-82
2022/09/13 04:46:00;;;;;;;;;4.33;3.33;;;;;22.94;51.63;100486.63;5020084;28;45411;-81
2022/09/13 04:48:25;;;;;;;;;5.00;5.00;;;;;22.94;51.70;100484.81;5020348;28;45494;-81
2022/09/13 04:50:50;;;;;;;;;3.00;3.00;;;;;22.94;52.04;100500.06;5020967;28;45923;-80
2022/09/13 04:53:17;;;;;;;;;4.00;4.00;;;;;22.96;51.67;100508.84;5019945;28;45396;-81
2022/09/13 04:55:43;;;;;;;;;6.67;3.67;;;;;22.93;51.97;100512.59;5019505;28;45415;-82
2022/09/13 04:58:08;;;;;;;;;5.33;5.00;;;;;22.93;51.55;100526.00;5019499;28;45722;-81
2022/09/13 05:00:34;;;;;;;;;6.33;6.33;;;;;22.86;52.33;100530.03;5018931;28;45519;-81
2022/09/13 05:03:00;;;;;;;;;4.33;4.33;;;;;22.79;53.05;100521.44;5019101;28;45530;-82
2022/09/13 05:05:27;;;;;;;;;6.00;5.67;;;;;22.74;53.84;100528.03;5018701;28;46972;-81
2022/09/13 05:07:53;;;;;;;;;5.33;5.33;;;;;22.63;54.30;100509.88;5000375;28;45295;-82
2022/09/13 05:10:19;;;;;;;;;9.00;7.33;;;;;22.50;54.96;100501.66;5009803;28;45479;-82
2022/09/13 05:12:44;;;;;;;;;8.33;6.00;;;;;22.48;54.88;100498.22;5017882;28;45646;-82
2022/09/13 05:15:11;;;;;;;;;6.00;6.00;;;;;22.42;55.60;100495.88;5007180;28;47873;-82
2022/09/13 05:17:37;;;;;;;;;7.67;6.00;;;;;22.36;55.17;100502.44;4998154;28;45412;-82
2022/09/13 05:20:04;;;;;;;;;7.00;5.00;;;;;22.35;55.21;100513.28;4998553;28;45390;-81
2022/09/13 05:22:30;;;;;;;;;5.67;4.67;;;;;22.24;55.92;100509.38;4999570;28;45317;-82
2022/09/13 05:24:55;;;;;;;;;5.67;5.33;;;;;22.18;55.44;100503.44;4999551;28;45559;-82
2022/09/13 05:27:21;;;;;;;;;5.00;4.00;;;;;22.16;55.73;100518.75;4999709;28;45202;-82
2022/09/13 05:29:49;;;;;;;;;8.00;6.00;;;;;22.10;55.91;100519.97;4998381;28;45315;-82
2022/09/13 05:32:14;;;;;;;;;7.00;6.33;;;;;22.00;56.17;100508.91;5000298;28;45368;-81
2022/09/13 05:34:40;;;;;;;;;7.00;6.00;;;;;21.98;56.13;100500.06;5003187;28;46232;-81
2022/09/13 05:37:06;;;;;;;;;6.00;6.00;;;;;21.95;56.37;100502.94;5002729;28;45328;-82
2022/09/13 05:39:31;;;;;;;;;5.00;5.00;;;;;21.95;56.15;100502.94;5001723;28;45395;-82
2022/09/13 05:41:57;;;;;;;;;7.67;7.00;;;;;21.91;56.33;100509.38;5007114;28;45369;-82
2022/09/13 05:44:23;;;;;;;;;5.67;5.67;;;;;21.90;56.25;100510.34;5022762;28;46020;-82
2022/09/13 05:46:48;;;;;;;;;7.00;7.00;;;;;21.95;56.32;100510.97;5009317;28;45477;-82
2022/09/13 05:49:14;;;;;;;;;6.00;6.00;;;;;21.95;56.22;100502.06;5021384;28;45246;-81
2022/09/13 05:51:39;;;;;;;;;7.00;6.00;;;;;21.94;56.51;100503.00;5022490;28;45174;-82
2022/09/13 05:54:05;;;;;;;;;5.67;5.67;;;;;21.95;56.07;100505.59;5021062;28;47172;-82
2022/09/13 05:56:31;;;;;;;;;8.00;8.00;;;;;21.98;55.89;100500.06;5022321;28;45362;-82
2022/09/13 05:58:57;;;;;;;;;8.00;7.67;;;;;22.01;56.18;100491.00;5022313;28;45220;-82
2022/09/13 06:01:27;;;;;;;;;6.67;6.33;;;;;22.03;56.00;100499.81;5020979;28;45439;-82
2022/09/13 06:03:55;;;;;;;;;7.67;6.00;;;;;22.00;55.98;100495.50;5022269;28;45495;-82
2022/09/13 06:06:22;;;;;;;;;7.67;5.33;;;;;22.03;55.81;100498.00;5002702;28;45189;-82
2022/09/13 06:08:51;;;;;;;;;6.00;6.00;;;;;22.06;55.67;100485.38;5002648;28;45356;-82
2022/09/13 06:11:16;;;;;;;;;9.00;8.00;;;;;22.05;55.86;100481.81;5000873;28;45902;-82
2022/09/13 06:13:44;;;;;;;;;8.00;6.67;;;;;22.08;55.84;100475.41;5002217;28;46681;-82
2022/09/13 06:16:12;;;;;;;;;6.67;6.00;;;;;22.16;55.61;100479.41;5002333;28;45314;-82
2022/09/13 06:18:38;;;;;;;;;6.00;6.00;;;;;22.14;55.38;100464.38;5001160;28;45305;-82
2022/09/13 06:21:06;;;;;;;;;4.33;4.33;;;;;22.21;55.67;100474.69;5000901;28;45730;-82
2022/09/13 06:23:32;;;;;;;;;6.00;5.00;;;;;22.22;55.33;100462.16;5000783;28;48185;-82
2022/09/13 06:26:09;;;;;;;;;8.00;7.33;;;;;22.27;55.50;100464.56;5002298;28;45230;-82
2022/09/13 06:28:35;;;;;;;;;9.00;5.67;;;;;22.34;55.12;100469.47;5000764;28;45290;-82
2022/09/13 06:31:12;;;;;;;;;5.67;5.67;;;;;22.35;55.33;100463.19;5002078;28;45550;-82
2022/09/13 06:33:39;;;;;;;;;8.33;7.00;;;;;22.40;55.37;100463.78;5000520;28;48142;-82
2022/09/13 06:36:10;;;;;;;;;8.00;6.00;;;;;22.42;55.56;100456.50;5002209;28;45313;-82
2022/09/13 06:38:38;;;;;;;;;7.00;7.00;;;;;22.50;55.07;100449.81;5014110;28;45268;-82
2022/09/13 06:41:11;;;;;;;;;8.00;7.00;;;;;22.54;54.96;100444.19;5002060;28;45519;-82
2022/09/13 06:43:38;;;;;;;;;10.67;7.33;;;;;22.59;54.92;100441.25;4999939;28;46999;-82
2022/09/13 06:46:08;;;;;;;;;10.67;8.00;;;;;22.64;54.64;100426.59;5000518;28;45285;-82
2022/09/13 06:48:36;;;;;;;;;9.33;7.33;;;;;22.71;54.53;100434.28;5020026;28;45321;-82
2022/09/13 06:51:04;;;;;;;;;9.75;7.00;;;;;22.78;54.34;100424.94;5021815;28;45462;-82
2022/09/13 06:53:30;;;;;;;;;8.00;5.25;;;;;22.84;54.17;100421.88;5021493;28;46065;-82
2022/09/13 06:56:07;;;;;;;;;8.00;8.00;;;;;22.89;54.06;100417.09;5021192;28;45403;-82
2022/09/13 06:58:33;;;;;;;;;10.00;9.25;;;;;22.94;53.81;100415.00;5013752;28;45347;-81
2022/09/13 07:01:08;;;;;;;;;6.33;5.00;;;;;22.96;53.94;100397.00;5001871;28;45434;-81
2022/09/13 07:03:34;;;;;;;;;6.33;6.33;;;;;22.96;53.65;100391.63;5002447;28;45722;-81
2022/09/13 07:05:59;;;;;;;;;7.00;7.00;;;;;22.96;53.64;100388.97;5001314;28;45071;-81
2022/09/13 07:08:24;;;;;;;;;6.33;5.33;;;;;22.98;53.49;100381.66;5002535;28;45229;-81
2022/09/13 07:10:50;;;;;;;;;5.67;5.67;;;;;23.01;53.13;100383.28;5000506;28;45509;-81
2022/09/13 07:13:15;;;;;;;;;7.00;7.00;;;;;23.02;53.51;100377.84;5001630;28;45402;-82
2022/09/13 07:15:40;;;;;;;;;8.00;8.00;;;;;23.05;53.47;100374.94;5001544;28;45230;-82
2022/09/13 07:18:06;;;;;;;;;7.00;6.33;;;;;23.08;53.22;100385.50;5000519;28;45566;-82
2022/09/13 07:20:32;;;;;;;;;4.67;4.67;;;;;23.11;52.66;100382.63;5000041;28;45539;-82
2022/09/13 07:22:57;;;;;;;;;5.33;5.33;;;;;23.18;52.69;100391.19;5001283;28;46195;-81
2022/09/13 07:25:22;;;;;;;;;5.67;4.00;;;;;23.24;52.62;100388.09;5000620;28;45234;-81
2022/09/13 07:27:48;;;;;;;;;6.00;6.00;;;;;23.30;52.68;100386.84;5001945;28;45973;-81
2022/09/13 07:30:13;;;;;;;;;4.67;3.33;;;;;23.34;52.16;100383.88;4999846;28;45479;-82
2022/09/13 07:32:39;;;;;;;;;6.33;6.00;;;;;23.40;52.06;100379.94;4999599;28;46353;-82
2022/09/13 07:35:06;;;;;;;;;7.00;7.00;;;;;23.46;52.09;100384.91;4999378;28;45462;-82
2022/09/13 07:37:32;;;;;;;;;4.00;4.00;;;;;23.53;51.72;100398.84;5000148;28;45507;-82
2022/09/13 07:39:57;;;;;;;;;4.00;4.00;;;;;23.57;51.61;100400.38;5001574;28;45467;-81
2022/09/13 07:42:23;;;;;;;;;8.67;8.00;;;;;23.63;51.80;100397.31;4999616;28;48212;-82
2022/09/13 07:44:48;;;;;;;;;8.00;8.00;;;;;23.72;51.75;100390.50;4999524;28;46298;-82
2022/09/13 07:47:14;;;;;;;;;5.00;5.00;;;;;23.77;51.31;100399.16;5009281;28;45445;-82
2022/09/13 07:49:39;;;;;;;;;6.00;6.00;;;;;23.82;51.62;100396.13;5017564;28;45533;-82
2022/09/13 07:52:05;;;;;;;;;6.00;6.00;;;;;23.89;51.48;100395.66;4999170;28;46826;-82
2022/09/13 07:54:30;;;;;;;;;4.67;4.67;;;;;23.97;51.11;100393.31;5007323;28;45438;-82
2022/09/13 07:56:56;;;;;;;;;6.00;6.00;;;;;24.02;50.30;100394.84;5018357;28;45383;-82
2022/09/13 07:59:21;;;;;;;;;3.33;3.00;;;;;24.08;50.57;100387.22;5020019;28;45418;-82
2022/09/13 08:01:49;;;;;;;;;7.00;6.00;;;;;24.13;50.64;100384.25;5018212;28;46958;-82
2022/09/13 08:04:17;;;;;;;;;8.00;7.00;;;;;24.19;50.27;100390.09;5018599;28;45534;-82
2022/09/13 08:06:44;;;;;;;;;3.00;3.00;;;;;24.22;50.23;100391.72;5018668;28;45342;-82
2022/09/13 08:09:10;;;;;;;;;7.00;6.00;;;;;24.25;50.43;100396.91;5020264;28;45187;-82
2022/09/13 08:11:43;;;;;;;;;7.00;6.00;;;;;24.33;50.23;100391.88;5018195;28;46262;-82
2022/09/13 08:14:11;;;;;;;;;5.00;4.00;;;;;24.36;49.70;100393.50;5018470;28;45376;-82
2022/09/13 08:16:38;;;;;;;;;7.33;7.33;;;;;24.36;50.06;100380.03;5018526;28;45459;-82
2022/09/13 08:19:04;;;;;;;;;5.00;5.00;;;;;24.42;49.94;100391.25;5018298;28;45458;-82
2022/09/13 08:21:38;;;;;;;;;5.00;5.00;;;;;24.46;49.71;100381.19;5018206;28;46468;-82
2022/09/13 08:24:04;;;;;;;;;7.33;5.67;;;;;24.52;49.62;100382.59;5019534;28;45293;-82
2022/09/13 08:26:32;;;;;;;;;5.67;5.67;;;;;24.58;49.88;100376.78;5019491;28;45444;-82
2022/09/13 08:29:00;;;;;;;;;5.00;5.00;;;;;24.63;49.76;100369.25;5019682;28;45360;-82
2022/09/13 08:31:26;;;;;;;;;6.67;6.00;;;;;24.64;49.24;100363.78;5018151;28;46369;-82
2022/09/13 08:33:52;;;;;;;;;5.00;5.00;;;;;24.69;49.47;100371.53;5018173;28;45320;-82
2022/09/13 08:36:18;;;;;;;;;7.00;7.00;;;;;24.72;48.99;100379.38;5018318;28;45279;-82
2022/09/13 08:38:48;;;;;;;;;6.67;5.00;;;;;24.75;49.04;100378.31;5019235;28;45457;-82
2022/09/13 08:41:34;;;;;;;;;5.67;5.67;;;;;24.76;49.48;100383.59;5017908;28;47291;-82
2022/09/13 08:44:27;;;;;;;;;7.00;6.67;;;;;24.85;48.56;100390.19;5019647;28;45503;-82
2022/09/13 08:47:03;;;;;;;;;5.33;5.33;;;;;24.87;49.35;100391.78;5017652;28;45386;-82
2022/09/13 08:49:35;;;;;;;;;7.33;5.33;;;;;24.93;49.10;100400.44;5019357;28;45368;-82
2022/09/13 08:52:31;;;;;;;;;7.00;7.00;;;;;24.99;48.25;100403.56;5017903;28;46420;-82
2022/09/13 08:55:13;;;;;;;;;10.67;7.33;;;;;25.03;48.48;100404.22;5015354;28;45351;-82
2022/09/13 08:57:51;;;;;;;;;5.00;5.00;;;;;25.11;47.81;100414.44;5018996;28;45315;-82
2022/09/13 09:00:19;;;;;;;;;5.33;5.33;;;;;25.19;47.65;100420.19;5017934;28;45451;-82
2022/09/13 09:02:54;;;;;;;;;6.00;6.00;;;;;25.26;47.37;100427.75;5017574;28;47666;-82
2022/09/13 09:05:23;;;;;;;;;5.00;5.00;;;;;25.32;47.07;100429.16;5017952;28;45321;-82
2022/09/13 09:07:51;;;;;;;;;4.33;4.33;;;;;25.35;47.29;100426.22;5022617;28;45286;-82
2022/09/13 09:10:20;;;;;;;;;3.33;3.33;;;;;25.38;47.43;100427.84;5010346;28;45490;-82
2022/09/13 09:12:51;;;;;;;;;6.00;5.67;;;;;25.37;46.89;100427.00;5001318;28;47079;-82
2022/09/13 09:15:22;;;;;;;;;5.00;5.00;;;;;25.36;46.92;100430.63;5002804;28;45408;-82
2022/09/13 09:18:05;;;;;;;;;6.00;4.33;;;;;25.35;46.59;100433.47;5002754;28;45238;-82
2022/09/13 09:20:35;;;;;;;;;3.67;3.67;;;;;25.28;46.56;100439.25;5001092;28;45477;-82
2022/09/13 09:23:25;;;;;;;;;5.00;4.00;;;;;25.28;46.87;100443.78;5001170;28;47477;-82
2022/09/13 09:26:25;;;;;;;;;4.00;3.67;;;;;25.27;46.57;100442.94;5001159;28;45257;-82
2022/09/13 09:29:26;;;;;;;;;4.00;3.00;;;;;25.38;48.00;100444.88;5002488;28;45363;-82
2022/09/13 09:32:20;;;;;;;;;4.33;4.33;;;;;25.52;48.67;100427.72;5003641;28;45252;-81
2022/09/13 09:35:18;;;;;;;;;6.00;6.00;;;;;25.66;48.65;100427.63;5008946;28;46208;-82
2022/09/13 09:38:07;;;;;;;;;5.33;4.67;;;;;25.79;48.79;100440.19;5004228;28;45476;-82
2022/09/13 09:40:37;;;;;;;;;3.00;3.00;;;;;25.85;48.73;100448.75;5003212;28;45437;-82
2022/09/13 09:43:14;;;;;;;;;7.00;5.67;;;;;25.91;48.69;100448.31;5002177;28;45492;-82
2022/09/13 09:45:42;;;;;;;;;5.33;5.33;;;;;25.94;48.52;100456.16;5000888;28;48156;-82
2022/09/13 09:48:14;;;;;;;;;4.00;4.00;;;;;25.98;48.13;100459.50;5017907;28;45403;-82
2022/09/13 09:50:47;;;;;;;;;4.00;4.00;;;;;26.02;47.98;100455.63;5021286;28;45348;-82
2022/09/13 09:53:23;;;;;;;;;5.67;5.67;;;;;26.07;47.52;100453.44;5022793;28;45501;-81
2022/09/13 09:55:59;;;;;;;;;5.67;5.67;;;;;26.13;47.16;100446.72;5023713;28;48494;-81
2022/09/13 09:58:39;;;;;;;;;4.33;4.33;;;;;26.18;47.14;100445.41;5021000;28;45430;-82
2022/09/13 10:01:33;;;;;;;;;2.33;2.00;;;;;26.21;46.32;100449.72;5005573;28;45309;-80
2022/09/13 10:04:02;;;;;;;;;3.33;3.33;;;;;26.17;45.75;100454.50;5000264;28;45644;-80
2022/09/13 10:06:29;;;;;;;;;2.67;2.67;;;;;26.20;45.83;100445.31;5007281;28;48454;-80
2022/09/13 10:09:02;;;;;;;;;3.33;3.00;;;;;26.26;45.74;100449.38;5022475;28;45449;-80
2022/09/13 10:11:41;;;;;;;;;2.67;2.67;;;;;26.35;45.53;100454.09;5020620;28;45482;-81
2022/09/13 10:14:41;;;;;;;;;3.67;3.67;;;;;26.45;45.76;100449.72;5020465;28;45533;-81
2022/09/13 10:17:26;;;;;;;;;3.67;3.33;;;;;26.60;45.30;100461.25;5019887;28;46358;-81
2022/09/13 10:20:18;;;;;;;;;5.00;3.67;;;;;26.71;44.87;100461.31;5020130;28;45249;-82
2022/09/13 10:23:04;;;;;;;;;3.00;3.00;;;;;26.82;44.46;100452.38;5020247;28;45263;-82
2022/09/13 10:25:30;;;;;;;;;4.00;4.00;;;;;26.85;44.22;100462.94;5021598;28;45435;-82
2022/09/13 10:27:59;;;;;;;;;4.33;4.33;;;;;26.76;44.36;100456.41;5020082;28;47520;-81
2022/09/13 10:30:30;;;;;;;;;3.67;3.67;;;;;26.75;44.84;100472.72;5020363;28;45475;-82
2022/09/13 10:32:57;;;;;;;;;5.00;5.00;;;;;26.66;44.64;100465.34;5020759;28;45360;-82
2022/09/13 10:35:23;;;;;;;;;6.33;6.33;;;;;26.63;45.06;100473.69;5020435;28;45204;-82
2022/09/13 10:37:54;;;;;;;;;7.33;6.33;;;;;26.61;45.07;100476.47;5020124;28;48121;-82
2022/09/13 10:40:33;;;;;;;;;8.33;7.33;;;;;26.59;45.68;100454.97;5019874;28;45767;-81
2022/09/13 10:43:03;;;;;;;;;7.67;7.67;;;;;26.60;45.50;100459.41;5020211;28;45460;-82
2022/09/13 10:45:30;;;;;;;;;8.00;6.33;;;;;26.59;45.62;100456.81;5019874;28;45445;-83
2022/09/13 10:48:15;;;;;;;;;9.67;7.67;;;;;26.59;45.96;100449.56;5020267;28;48228;-82
2022/09/13 10:51:03;;;;;;;;;5.00;5.00;;;;;26.57;45.69;100451.56;5021577;28;45304;-82
2022/09/13 10:53:42;;;;;;;;;8.33;7.67;;;;;26.58;45.62;100447.00;5020609;28;45205;-82
2022/09/13 10:56:21;;;;;;;;;5.00;5.00;;;;;26.58;45.63;100447.88;5016777;28;46336;-82
2022/09/13 10:58:56;;;;;;;;;4.67;3.67;;;;;26.65;45.72;100447.38;4999721;28;47198;-82
2022/09/13 11:01:36;;;;;;;;;6.33;6.33;;;;;26.71;45.47;100437.00;5000018;28;45312;-82
2022/09/13 11:04:05;;;;;;;;;4.00;4.00;;;;;26.79;45.27;100441.81;5001429;28;45269;-82
2022/09/13 11:06:59;;;;;;;;;6.67;5.00;;;;;26.93;44.77;100449.72;5002735;28;45229;-82
2022/09/13 11:09:37;;;;;;;;;5.00;4.00;;;;;27.06;43.77;100436.97;5019620;28;47409;-82
2022/09/13 11:12:17;;;;;;;;;4.67;4.67;;;;;27.17;44.24;100430.75;5020864;28;45212;-80
2022/09/13 11:15:17;;;;;;;;;5.00;5.00;;;;;27.35;43.76;100433.88;5019903;28;45442;-82
2022/09/13 11:17:43;;;;;;;;;5.67;4.00;;;;;27.46;43.51;100444.69;5002886;28;45258;-82
2022/09/13 11:20:41;;;;;;;;;6.33;5.00;;;;;27.53;43.05;100431.53;4999681;28;48200;-82
2022/09/13 11:23:09;;;;;;;;;6.00;6.00;;;;;27.59;43.24;100436.47;5010608;28;44883;-83
2022/09/13 11:26:12;;;;;;;;;5.00;5.00;;;;;27.60;43.01;100431.91;5021640;28;45434;-82
2022/09/13 11:29:19;;;;;;;;;3.67;3.67;;;;;27.57;42.82;100430.31;5020974;28;45593;-82
2022/09/13 11:32:06;;;;;;;;;5.00;5.00;;;;;27.59;42.47;100428.34;5019364;28;47279;-81
2022/09/13 11:34:41;;;;;;;;;3.33;3.33;;;;;27.57;42.59;100419.50;5019556;28;45809;-81
2022/09/13 11:37:06;;;;;;;;;6.00;4.00;;;;;27.57;43.23;100415.94;5020736;28;45229;-82
2022/09/13 11:40:01;;;;;;;;;5.00;3.00;;;;;27.59;42.87;100419.38;5020832;28;45355;-82
2022/09/13 11:42:55;;;;;;;;;5.00;4.00;;;;;27.63;42.80;100404.63;5015458;28;45705;-81
2022/09/13 11:45:27;;;;;;;;;4.00;4.00;;;;;27.66;42.30;100415.19;5001343;28;45329;-82
2022/09/13 11:48:11;;;;;;;;;4.33;4.33;;;;;27.74;42.00;100430.78;5012812;28;45558;-82
2022/09/13 11:51:24;;;;;;;;;2.00;1.00;;;;;27.77;42.08;100422.44;5009802;28;45374;-82